createdAt,value
2019-03-24T00:00:51.650Z,25.43
2019-03-24T00:03:20.338Z,24.40
2019-03-24T00:05:49.120Z,26.00
2019-03-24T00:08:17.850Z,24.83
2019-03-24T00:10:46.697Z,25.57
2019-03-24T00:13:15.264Z,24.57
2019-03-24T00:15:43.874Z,24.83
2019-03-24T00:18:12.528Z,25.03
2019-03-24T00:20:41.199Z,25.03
2019-03-24T00:23:09.817Z,25.00
2019-03-24T00:25:38.426Z,25.70
2019-03-24T00:28:07.223Z,24.13
2019-03-24T00:30:35.881Z,25.13
2019-03-24T00:33:04.623Z,23.83
2019-03-24T00:35:33.188Z,25.10
2019-03-24T00:38:01.746Z,25.20
2019-03-24T00:40:30.548Z,23.73
2019-03-24T00:42:59.177Z,24.40
2019-03-24T00:45:36.525Z,25.63
2019-03-24T00:47:58.009Z,24.53
2019-03-24T00:50:26.646Z,24.80
2019-03-24T00:52:55.447Z,23.10
2019-03-24T00:55:24.395Z,23.80
2019-03-24T00:57:53.447Z,23.33
2019-03-24T01:00:43.296Z,23.30
2019-03-24T01:03:12.098Z,21.80
2019-03-24T01:05:41.005Z,21.37
2019-03-24T01:08:09.785Z,20.67
2019-03-24T01:10:38.621Z,20.97
2019-03-24T01:13:07.201Z,20.23
2019-03-24T01:15:35.889Z,20.43
2019-03-24T01:18:04.583Z,22.90
2019-03-24T01:20:33.209Z,20.90
2019-03-24T01:23:01.869Z,20.60
2019-03-24T01:25:31.053Z,22.13
2019-03-24T01:27:59.704Z,20.77
2019-03-24T01:30:28.390Z,20.27
2019-03-24T01:32:58.181Z,20.50
2019-03-24T01:35:26.876Z,19.37
2019-03-24T01:37:55.440Z,20.20
2019-03-24T01:40:25.192Z,18.77
2019-03-24T01:42:54.001Z,18.80
2019-03-24T01:45:25.556Z,19.20
2019-03-24T01:47:54.022Z,20.70
2019-03-24T01:50:22.742Z,20.97
2019-03-24T01:52:51.276Z,20.07
2019-03-24T01:55:24.699Z,19.63
2019-03-24T01:57:53.309Z,20.37
2019-03-24T02:00:22.103Z,19.20
2019-03-24T02:02:53.433Z,18.60
2019-03-24T02:05:22.055Z,17.67
2019-03-24T02:07:50.604Z,18.87
2019-03-24T02:10:19.334Z,17.73
2019-03-24T02:12:48.077Z,19.17
2019-03-24T02:15:16.838Z,18.70
2019-03-24T02:17:45.442Z,19.50
2019-03-24T02:20:14.141Z,18.83
2019-03-24T02:22:42.790Z,18.30
2019-03-24T02:25:11.674Z,18.30
2019-03-24T02:27:40.336Z,18.17
2019-03-24T02:30:09.597Z,18.53
2019-03-24T02:32:38.431Z,18.10
2019-03-24T02:35:07.553Z,17.67
2019-03-24T02:37:36.238Z,17.50
2019-03-24T02:40:06.786Z,17.67
2019-03-24T02:42:35.385Z,18.70
2019-03-24T02:45:05.550Z,17.50
2019-03-24T02:47:34.285Z,18.57
2019-03-24T02:50:02.834Z,18.07
2019-03-24T02:52:31.391Z,19.17
2019-03-24T02:54:59.944Z,18.20
2019-03-24T02:57:28.614Z,18.00
2019-03-24T02:59:57.186Z,18.37
2019-03-24T03:02:25.719Z,18.60
2019-03-24T03:04:54.346Z,17.83
2019-03-24T03:07:23.059Z,18.40
2019-03-24T03:09:51.684Z,17.73
2019-03-24T03:12:20.309Z,18.53
2019-03-24T03:14:48.997Z,19.07
2019-03-24T03:17:17.754Z,19.37
2019-03-24T03:19:46.449Z,19.13
2019-03-24T03:22:15.059Z,19.57
2019-03-24T03:24:43.685Z,18.50
2019-03-24T03:27:14.624Z,19.07
2019-03-24T03:29:43.169Z,19.80
2019-03-24T03:32:11.710Z,19.77
2019-03-24T03:34:40.310Z,18.97
2019-03-24T03:37:08.979Z,18.33
2019-03-24T03:39:37.645Z,18.80
2019-03-24T03:42:06.310Z,19.63
2019-03-24T03:44:34.935Z,19.33
2019-03-24T03:47:03.557Z,18.40
2019-03-24T03:49:32.181Z,18.70
2019-03-24T03:52:00.787Z,17.83
2019-03-24T03:54:29.314Z,19.20
2019-03-24T03:56:57.887Z,18.97
2019-03-24T03:59:26.503Z,18.83
2019-03-24T04:01:55.134Z,18.53
2019-03-24T04:04:23.682Z,18.40
2019-03-24T04:06:52.281Z,18.60
2019-03-24T04:09:21.088Z,17.93
2019-03-24T04:11:49.666Z,17.57
2019-03-24T04:14:18.206Z,17.77
2019-03-24T04:16:46.928Z,17.97
2019-03-24T04:19:15.538Z,17.47
2019-03-24T04:21:44.164Z,17.83
2019-03-24T04:24:12.806Z,18.13
2019-03-24T04:26:41.439Z,17.30
2019-03-24T04:29:09.990Z,17.17
2019-03-24T04:31:38.546Z,17.17
2019-03-24T04:34:07.083Z,16.90
2019-03-24T04:36:35.653Z,16.53
2019-03-24T04:39:05.725Z,17.07
2019-03-24T04:41:34.291Z,17.03
2019-03-24T04:44:02.885Z,16.77
2019-03-24T04:46:31.422Z,15.67
2019-03-24T04:48:59.981Z,16.73
2019-03-24T04:51:28.569Z,16.37
2019-03-24T04:53:57.214Z,15.70
2019-03-24T04:56:25.750Z,17.40
2019-03-24T04:58:54.301Z,18.03
2019-03-24T05:01:22.928Z,16.33
2019-03-24T05:03:51.523Z,16.57
2019-03-24T05:06:20.613Z,15.97
2019-03-24T05:08:50.041Z,15.97
2019-03-24T05:11:18.656Z,14.77
2019-03-24T05:13:47.253Z,16.90
2019-03-24T05:16:15.778Z,16.67
2019-03-24T05:18:44.344Z,15.83
2019-03-24T05:21:12.951Z,15.80
2019-03-24T05:23:41.570Z,15.53
2019-03-24T05:26:10.154Z,16.40
2019-03-24T05:28:38.626Z,17.07
2019-03-24T05:31:07.194Z,15.87
2019-03-24T05:33:35.805Z,16.00
2019-03-24T05:36:04.449Z,17.07
2019-03-24T05:38:33.060Z,17.07
2019-03-24T05:41:01.629Z,16.53
2019-03-24T05:43:30.170Z,16.67
2019-03-24T05:45:58.687Z,16.53
2019-03-24T05:48:27.278Z,16.77
2019-03-24T05:50:56.044Z,17.40
2019-03-24T05:53:24.533Z,17.07
2019-03-24T05:55:53.163Z,17.33
2019-03-24T05:58:21.702Z,17.30
2019-03-24T06:00:50.339Z,17.47
2019-03-24T06:03:18.898Z,17.23
2019-03-24T06:05:47.514Z,17.77
2019-03-24T06:08:15.992Z,16.53
2019-03-24T06:10:44.527Z,17.77
2019-03-24T06:13:13.261Z,18.10
2019-03-24T06:15:41.758Z,18.00
2019-03-24T06:18:10.372Z,17.93
2019-03-24T06:20:38.949Z,17.77
2019-03-24T06:23:07.526Z,18.57
2019-03-24T06:25:36.130Z,19.20
2019-03-24T06:28:04.823Z,17.30
2019-03-24T06:30:33.447Z,18.27
2019-03-24T06:33:02.092Z,17.83
2019-03-24T06:35:30.692Z,19.27
2019-03-24T06:37:59.419Z,18.40
2019-03-24T06:40:27.986Z,19.33
2019-03-24T06:42:56.517Z,18.63
2019-03-24T06:45:28.610Z,19.03
2019-03-24T06:47:58.242Z,19.07
2019-03-24T06:50:25.744Z,18.97
2019-03-24T06:52:54.359Z,18.87
2019-03-24T06:55:23.618Z,19.10
2019-03-24T06:57:52.205Z,19.20
2019-03-24T07:00:20.844Z,20.27
2019-03-24T07:02:49.470Z,19.97
2019-03-24T07:05:18.166Z,19.83
2019-03-24T07:07:47.438Z,18.93
2019-03-24T07:10:16.138Z,19.80
2019-03-24T07:12:44.707Z,19.37
2019-03-24T07:15:13.475Z,21.47
2019-03-24T07:17:42.093Z,20.47
2019-03-24T07:20:10.993Z,20.87
2019-03-24T07:22:39.692Z,21.27
2019-03-24T07:25:08.743Z,20.67
2019-03-24T07:27:37.354Z,21.87
2019-03-24T07:30:08.027Z,22.23
2019-03-24T07:32:36.727Z,22.50
2019-03-24T07:35:07.453Z,22.67
2019-03-24T07:37:36.356Z,22.23
2019-03-24T07:40:07.446Z,24.13
2019-03-24T07:42:36.074Z,23.93
2019-03-24T07:45:07.163Z,23.87
2019-03-24T07:47:35.746Z,23.67
2019-03-24T07:50:09.231Z,24.57
2019-03-24T07:52:37.982Z,23.23
2019-03-24T07:55:07.362Z,26.00
2019-03-24T07:57:35.995Z,26.00
2019-03-24T08:00:06.385Z,25.43
2019-03-24T08:02:35.006Z,24.50
2019-03-24T08:05:04.284Z,24.70
2019-03-24T08:07:33.457Z,25.67
2019-03-24T08:10:02.113Z,25.07
2019-03-24T08:12:30.740Z,24.27
2019-03-24T08:15:00.077Z,24.33
2019-03-24T08:17:28.796Z,25.10
2019-03-24T08:19:57.654Z,25.33
2019-03-24T08:22:26.346Z,25.27
2019-03-24T08:24:54.987Z,25.07
2019-03-24T08:27:23.541Z,25.10
2019-03-24T08:29:52.183Z,26.00
2019-03-24T08:32:21.656Z,25.27
2019-03-24T08:34:51.141Z,24.80
2019-03-24T08:37:19.896Z,26.27
2019-03-24T08:39:48.485Z,25.47
2019-03-24T08:42:17.833Z,26.17
2019-03-24T08:44:46.524Z,26.67
2019-03-24T08:47:15.351Z,25.17
2019-03-24T08:49:46.795Z,26.00
2019-03-24T08:52:15.447Z,24.83
2019-03-24T08:54:44.242Z,26.20
2019-03-24T08:57:12.793Z,26.50
2019-03-24T08:59:41.393Z,26.60
2019-03-24T09:02:10.263Z,26.40
2019-03-24T09:04:38.821Z,25.77
2019-03-24T09:07:07.385Z,26.73
2019-03-24T09:09:36.202Z,29.03
2019-03-24T09:12:05.063Z,25.60
2019-03-24T09:14:33.686Z,28.13
2019-03-24T09:17:02.327Z,28.40
2019-03-24T09:19:31.182Z,26.97
2019-03-24T09:22:01.887Z,27.17
2019-03-24T09:24:30.573Z,28.67
2019-03-24T09:26:59.341Z,28.07
2019-03-24T09:29:27.854Z,30.07
2019-03-24T09:31:56.560Z,28.33
2019-03-24T09:34:25.294Z,27.33
2019-03-24T09:36:53.836Z,28.57
2019-03-24T09:39:22.940Z,28.70
2019-03-24T09:41:52.253Z,27.87
2019-03-24T09:44:21.126Z,27.30
2019-03-24T09:46:49.829Z,28.20
2019-03-24T09:49:18.534Z,29.63
2019-03-24T09:51:49.011Z,30.43
2019-03-24T09:54:17.692Z,28.83
2019-03-24T09:56:46.384Z,30.90
2019-03-24T09:59:14.962Z,32.00
2019-03-24T10:01:44.998Z,32.13
2019-03-24T10:04:13.726Z,32.17
2019-03-24T10:06:42.921Z,32.87
2019-03-24T10:09:11.562Z,31.40
2019-03-24T10:11:40.205Z,34.83
2019-03-24T10:14:09.030Z,33.87
2019-03-24T10:16:37.737Z,35.03
2019-03-24T10:19:13.930Z,35.20
2019-03-24T10:21:36.891Z,35.80
2019-03-24T10:24:07.901Z,36.63
2019-03-24T10:26:37.123Z,36.77
2019-03-24T10:29:05.967Z,36.83
2019-03-24T10:31:34.753Z,36.03
2019-03-24T10:34:03.549Z,37.03
2019-03-24T10:36:34.177Z,38.30
2019-03-24T10:39:02.537Z,39.03
2019-03-24T10:41:31.195Z,37.60
2019-03-24T10:43:59.774Z,38.20
2019-03-24T10:46:28.476Z,38.13
2019-03-24T10:48:57.899Z,38.67
2019-03-24T10:51:26.589Z,38.77
2019-03-24T10:53:55.315Z,37.53
2019-03-24T10:56:24.061Z,39.97
2019-03-24T10:58:52.944Z,39.80
2019-03-24T11:01:21.948Z,43.13
2019-03-24T11:03:50.690Z,44.30
2019-03-24T11:06:20.575Z,38.87
2019-03-24T11:08:49.282Z,39.20
2019-03-24T11:11:18.298Z,39.83
2019-03-24T11:13:46.870Z,40.83
2019-03-24T11:16:15.667Z,41.90
2019-03-24T11:18:44.980Z,40.60
2019-03-24T11:21:13.652Z,40.60
2019-03-24T11:23:42.465Z,42.20
2019-03-24T11:26:11.580Z,40.20
2019-03-24T11:28:40.875Z,41.33
2019-03-24T11:31:09.586Z,41.83
2019-03-24T11:33:38.232Z,40.37
2019-03-24T11:36:07.911Z,42.50
2019-03-24T11:38:38.075Z,42.20
2019-03-24T11:41:06.999Z,41.50
2019-03-24T11:43:35.859Z,40.47
2019-03-24T11:46:08.599Z,41.30
2019-03-24T11:48:37.336Z,39.63
2019-03-24T11:51:06.160Z,42.33
2019-03-24T11:53:34.874Z,40.93
2019-03-24T11:56:04.054Z,41.27
2019-03-24T11:58:34.435Z,39.83
2019-03-24T12:01:03.041Z,41.23
2019-03-24T12:03:32.702Z,38.60
2019-03-24T12:06:01.599Z,39.93
2019-03-24T12:08:30.359Z,40.73
2019-03-24T12:10:59.146Z,39.73
2019-03-24T12:13:27.993Z,39.00
2019-03-24T12:15:56.726Z,38.93
2019-03-24T12:18:25.312Z,40.87
2019-03-24T12:20:53.921Z,39.47
2019-03-24T12:23:22.603Z,38.47
2019-03-24T12:25:53.155Z,38.77
2019-03-24T12:28:21.695Z,38.77
2019-03-24T12:30:50.729Z,39.42
2019-03-24T12:33:19.407Z,39.48
2019-03-24T12:35:48.345Z,38.10
2019-03-24T12:38:18.458Z,38.75
2019-03-24T12:40:47.362Z,38.50
2019-03-24T12:43:27.716Z,37.87
2019-03-24T12:45:57.059Z,38.02
2019-03-24T12:48:28.260Z,41.02
2019-03-24T12:50:57.154Z,38.38
2019-03-24T12:53:26.347Z,40.90
2019-03-24T12:55:57.290Z,38.30
2019-03-24T12:58:25.963Z,40.47
2019-03-24T13:00:55.119Z,38.40
2019-03-24T13:03:23.901Z,38.83
2019-03-24T13:05:52.647Z,39.07
2019-03-24T13:08:21.266Z,42.10
2019-03-24T13:10:50.183Z,38.97
2019-03-24T13:13:18.993Z,38.20
2019-03-24T13:15:48.265Z,35.33
2019-03-24T13:18:16.961Z,36.97
2019-03-24T13:20:45.675Z,35.87
2019-03-24T13:23:14.240Z,37.93
2019-03-24T13:25:43.127Z,35.77
2019-03-24T13:28:11.755Z,37.07
2019-03-24T13:30:40.452Z,36.83
2019-03-24T13:33:09.281Z,37.10
2019-03-24T13:35:37.846Z,37.40
2019-03-24T13:38:06.583Z,36.30
2019-03-24T13:40:35.249Z,35.40
2019-03-24T13:43:03.871Z,35.87
2019-03-24T13:45:32.712Z,35.70
2019-03-24T13:48:01.422Z,36.07
2019-03-24T13:50:31.546Z,36.40
2019-03-24T13:53:00.702Z,35.83
2019-03-24T13:55:29.422Z,36.43
2019-03-24T13:57:58.124Z,34.60
2019-03-24T14:00:26.937Z,32.10
2019-03-24T14:02:55.499Z,34.03
2019-03-24T14:05:24.194Z,33.03
2019-03-24T14:07:52.827Z,35.07
2019-03-24T14:10:21.350Z,34.67
2019-03-24T14:12:49.993Z,34.67
2019-03-24T14:15:18.636Z,31.37
2019-03-24T14:17:47.387Z,33.90
2019-03-24T14:20:18.960Z,31.37
2019-03-24T14:22:47.670Z,33.40
2019-03-24T14:25:16.525Z,32.70
2019-03-24T14:27:45.212Z,33.00
2019-03-24T14:30:14.211Z,32.87
2019-03-24T14:32:42.847Z,32.37
2019-03-24T14:35:11.599Z,31.30
2019-03-24T14:37:40.352Z,31.87
2019-03-24T14:40:09.109Z,33.93
2019-03-24T14:42:37.804Z,32.43
2019-03-24T14:45:07.781Z,31.90
2019-03-24T14:47:36.785Z,33.40
2019-03-24T14:50:08.093Z,33.13
2019-03-24T14:52:36.799Z,32.53
2019-03-24T14:55:06.042Z,32.37
2019-03-24T14:57:34.552Z,32.90
2019-03-24T15:00:03.341Z,33.60
2019-03-24T15:02:31.881Z,31.97
2019-03-24T15:05:00.606Z,32.17
2019-03-24T15:07:29.249Z,31.80
2019-03-24T15:09:57.968Z,31.17
2019-03-24T15:12:34.362Z,29.93
2019-03-24T15:15:02.749Z,30.97
2019-03-24T15:20:08.222Z,30.30
2019-03-24T15:22:36.932Z,30.77
2019-03-24T15:25:06.432Z,28.90
2019-03-24T15:27:35.118Z,29.30
2019-03-24T15:30:08.078Z,30.77
2019-03-24T15:32:36.862Z,30.37
2019-03-24T15:35:06.950Z,29.93
2019-03-24T15:37:35.530Z,30.93
2019-03-24T15:40:05.474Z,28.27
2019-03-24T15:42:34.175Z,28.67
2019-03-24T15:45:02.892Z,27.90
2019-03-24T15:47:31.543Z,28.47
2019-03-24T15:50:00.328Z,30.07
2019-03-24T15:52:29.013Z,29.80
2019-03-24T15:58:29.271Z,27.90
2019-03-24T16:00:57.925Z,28.50
2019-03-24T16:03:26.539Z,29.27
2019-03-24T16:05:56.498Z,27.63
2019-03-24T16:08:25.906Z,29.87
2019-03-24T16:10:54.522Z,28.40
2019-03-24T16:13:28.666Z,27.43
2019-03-24T16:16:06.433Z,28.07
2019-03-24T16:18:37.581Z,28.80
2019-03-24T16:21:06.851Z,27.57
2019-03-24T16:23:40.328Z,27.60
2019-03-24T16:26:49.365Z,26.83
2019-03-24T16:29:18.085Z,28.60
2019-03-24T16:34:40.766Z,29.43
2019-03-24T16:37:10.997Z,28.40
2019-03-24T16:39:44.123Z,28.83
2019-03-24T16:42:14.422Z,30.00
2019-03-24T16:44:43.081Z,28.27
2019-03-24T16:47:11.674Z,31.00
2019-03-24T16:49:40.307Z,32.58
2019-03-24T16:52:26.835Z,30.97
2019-03-24T16:58:02.206Z,33.03
2019-03-24T17:00:35.400Z,33.83
2019-03-24T17:03:04.158Z,33.23
2019-03-24T17:05:34.641Z,31.57
2019-03-24T17:08:03.378Z,34.90
2019-03-24T17:16:56.914Z,35.03
2019-03-24T17:19:25.790Z,35.20
2019-03-24T17:21:54.465Z,32.50
2019-03-24T17:24:23.261Z,31.80
2019-03-24T17:27:03.579Z,33.47
2019-03-24T17:29:32.125Z,32.47
2019-03-24T17:32:03.774Z,31.83
2019-03-24T17:34:38.389Z,30.57
2019-03-24T17:37:07.136Z,31.23
2019-03-24T17:39:35.806Z,31.80
2019-03-24T17:42:04.449Z,33.23
2019-03-24T17:44:33.205Z,33.57
2019-03-24T17:47:06.421Z,35.77
2019-03-24T17:49:36.640Z,37.73
2019-03-24T17:52:06.936Z,39.40
2019-03-24T17:54:37.122Z,38.07
2019-03-24T17:57:05.762Z,39.13
2019-03-24T17:59:38.800Z,39.63
2019-03-24T18:02:14.242Z,39.10
2019-03-24T18:04:37.781Z,39.40
2019-03-24T18:07:06.653Z,42.17
2019-03-24T18:09:35.422Z,41.27
2019-03-24T18:12:04.221Z,41.70
2019-03-24T18:14:32.926Z,39.90
2019-03-24T18:17:01.630Z,43.03
2019-03-24T18:19:30.384Z,41.87
2019-03-24T18:21:58.994Z,44.93
2019-03-24T18:24:27.837Z,43.40
2019-03-24T18:26:58.103Z,43.53
2019-03-24T18:29:28.796Z,41.80
2019-03-24T18:31:58.840Z,42.23
2019-03-24T18:34:27.340Z,43.63
2019-03-24T18:36:55.990Z,45.57
2019-03-24T18:42:41.166Z,43.83
2019-03-24T18:45:12.997Z,43.73
2019-03-24T18:48:15.000Z,45.57
2019-03-24T18:51:29.872Z,46.40
2019-03-24T18:57:11.126Z,44.13
2019-03-24T18:59:54.929Z,45.87
2019-03-24T19:02:25.577Z,44.80
2019-03-24T19:11:38.182Z,44.60
2019-03-24T19:14:24.398Z,43.53
2019-03-24T19:16:58.981Z,43.13
2019-03-24T19:19:29.809Z,42.87
2019-03-24T19:25:20.712Z,41.73
2019-03-24T19:28:42.669Z,40.70
2019-03-24T19:31:45.943Z,40.70
2019-03-24T19:34:06.231Z,40.13
2019-03-24T19:36:36.304Z,40.87
2019-03-24T19:39:09.281Z,40.20
2019-03-24T19:44:58.417Z,38.57
2019-03-24T19:47:27.308Z,41.17
2019-03-24T19:49:56.809Z,43.87
2019-03-24T19:52:25.455Z,43.17
2019-03-24T19:54:54.720Z,41.67
2019-03-24T19:57:23.544Z,40.23
2019-03-24T19:59:52.290Z,42.23
2019-03-24T20:02:21.193Z,42.10
2019-03-24T20:04:52.591Z,42.33
2019-03-24T20:17:06.193Z,43.27
2019-03-24T20:19:34.781Z,44.50
2019-03-24T20:22:03.489Z,44.10
2019-03-24T20:24:34.993Z,44.80
2019-03-24T20:27:04.451Z,44.70
2019-03-24T20:29:34.149Z,43.13
2019-03-24T20:32:02.809Z,44.53
2019-03-24T20:34:31.681Z,44.27
2019-03-24T20:37:00.188Z,47.03
2019-03-24T20:39:28.989Z,44.37
2019-03-24T20:41:58.709Z,45.97
2019-03-24T20:44:27.346Z,45.60
2019-03-24T20:46:56.298Z,46.83
2019-03-24T20:49:24.966Z,45.47
2019-03-24T20:51:54.043Z,45.33
2019-03-24T20:54:22.745Z,45.77
2019-03-24T20:56:51.578Z,46.30
2019-03-24T20:59:20.452Z,45.80
2019-03-24T21:01:49.161Z,47.73
2019-03-24T21:04:20.341Z,46.00
2019-03-24T21:06:50.199Z,46.63
2019-03-24T21:09:22.297Z,48.87
2019-03-24T21:11:51.837Z,48.53
2019-03-24T21:14:21.804Z,49.43
2019-03-24T21:16:51.662Z,47.27
2019-03-24T21:19:22.045Z,49.47
2019-03-24T21:21:51.489Z,47.70
2019-03-24T21:24:24.070Z,46.73
2019-03-24T21:26:54.293Z,46.20
2019-03-24T21:29:24.111Z,44.43
2019-03-24T21:31:55.185Z,43.83
2019-03-24T21:34:24.825Z,45.63
2019-03-24T21:36:57.254Z,46.13
2019-03-24T21:39:26.703Z,46.10
2019-03-24T21:41:55.964Z,46.80
2019-03-24T21:44:24.881Z,46.53
2019-03-24T21:46:56.232Z,45.83
2019-03-24T21:49:26.370Z,49.20
2019-03-24T21:51:55.987Z,46.73
2019-03-24T21:54:25.318Z,46.00
2019-03-24T21:56:54.627Z,46.60
2019-03-24T21:59:24.118Z,46.43
2019-03-24T22:01:55.211Z,46.60
2019-03-24T22:04:25.006Z,47.27
2019-03-24T22:06:55.074Z,47.07
2019-03-24T22:09:28.640Z,48.30
2019-03-24T22:11:58.011Z,47.53
2019-03-24T22:14:29.849Z,45.27
2019-03-24T22:17:00.704Z,44.73
2019-03-24T22:23:11.675Z,44.30
2019-03-24T22:28:51.472Z,44.63
2019-03-24T22:44:49.819Z,46.47
2019-03-24T22:53:31.177Z,46.73
2019-03-24T22:56:02.024Z,46.67
2019-03-24T22:58:37.216Z,47.00
2019-03-24T23:01:33.260Z,45.77
2019-03-24T23:18:37.798Z,47.93
